sensor_id;sensor_type;location;lat;lon;timestamp;pressure;altitude;pressure_sealevel;temperature;humidity
62057;BME280;48016;50.284;18.860;2024-01-25T00:02:08;97953.77;;;5.60;77.40
62057;BME280;48016;50.284;18.860;2024-01-25T00:04:35;97953.45;;;5.62;77.35
62057;BME280;48016;50.284;18.860;2024-01-25T00:07:01;97948.76;;;5.63;77.21
62057;BME280;48016;50.284;18.860;2024-01-25T00:09:28;97949.95;;;5.64;77.09
62057;BME280;48016;50.284;18.860;2024-01-25T00:11:55;97953.91;;;5.66;76.92
62057;BME280;48016;50.284;18.860;2024-01-25T00:14:21;97953.84;;;5.66;76.69
62057;BME280;48016;50.284;18.860;2024-01-25T00:16:48;97954.69;;;5.64;76.41
62057;BME280;48016;50.284;18.860;2024-01-25T00:19:14;97958.47;;;5.63;76.54
62057;BME280;48016;50.284;18.860;2024-01-25T00:21:42;97962.05;;;5.63;76.46
62057;BME280;48016;50.284;18.860;2024-01-25T00:24:11;97963.59;;;5.62;75.98
62057;BME280;48016;50.284;18.860;2024-01-25T00:26:38;97962.24;;;5.62;76.05
62057;BME280;48016;50.284;18.860;2024-01-25T00:29:05;97960.84;;;5.62;75.89
62057;BME280;48016;50.284;18.860;2024-01-25T00:31:32;97956.09;;;5.62;75.84
62057;BME280;48016;50.284;18.860;2024-01-25T00:33:58;97960.33;;;5.62;75.66
62057;BME280;48016;50.284;18.860;2024-01-25T00:36:25;97957.55;;;5.63;75.54
62057;BME280;48016;50.284;18.860;2024-01-25T00:38:53;97961.31;;;5.65;75.77
62057;BME280;48016;50.284;18.860;2024-01-25T00:41:19;97965.08;;;5.68;75.79
62057;BME280;48016;50.284;18.860;2024-01-25T00:43:46;97966.95;;;5.70;75.76
62057;BME280;48016;50.284;18.860;2024-01-25T00:46:14;97971.96;;;5.71;75.31
62057;BME280;48016;50.284;18.860;2024-01-25T00:48:41;97973.50;;;5.72;75.52
62057;BME280;48016;50.284;18.860;2024-01-25T00:51:14;97982.08;;;5.72;75.25
62057;BME280;48016;50.284;18.860;2024-01-25T00:53:41;97977.77;;;5.71;75.13
62057;BME280;48016;50.284;18.860;2024-01-25T00:56:08;97983.29;;;5.72;75.08
62057;BME280;48016;50.284;18.860;2024-01-25T00:58:35;97976.05;;;5.71;75.08
62057;BME280;48016;50.284;18.860;2024-01-25T01:01:02;97968.60;;;5.70;74.82
62057;BME280;48016;50.284;18.860;2024-01-25T01:03:28;97979.66;;;5.67;74.72
62057;BME280;48016;50.284;18.860;2024-01-25T01:05:55;97980.61;;;5.65;74.78
62057;BME280;48016;50.284;18.860;2024-01-25T01:08:24;97978.23;;;5.63;74.44
62057;BME280;48016;50.284;18.860;2024-01-25T01:10:51;97974.30;;;5.64;74.38
62057;BME280;48016;50.284;18.860;2024-01-25T01:13:18;97979.97;;;5.65;74.28
62057;BME280;48016;50.284;18.860;2024-01-25T01:15:44;97974.45;;;5.67;74.53
62057;BME280;48016;50.284;18.860;2024-01-25T01:18:11;97977.59;;;5.69;74.36
62057;BME280;48016;50.284;18.860;2024-01-25T01:20:37;97971.64;;;5.71;74.64
62057;BME280;48016;50.284;18.860;2024-01-25T01:23:04;97974.89;;;5.70;74.55
62057;BME280;48016;50.284;18.860;2024-01-25T01:25:30;97965.15;;;5.71;74.58
62057;BME280;48016;50.284;18.860;2024-01-25T01:27:57;97965.91;;;5.72;74.57
62057;BME280;48016;50.284;18.860;2024-01-25T01:43:01;97955.66;;;6.23;72.13
62057;BME280;48016;50.284;18.860;2024-01-25T01:45:28;97956.53;;;6.15;71.91
62057;BME280;48016;50.284;18.860;2024-01-25T01:47:55;97956.46;;;6.05;71.91
62057;BME280;48016;50.284;18.860;2024-01-25T01:50:22;97951.95;;;5.99;72.14
62057;BME280;48016;50.284;18.860;2024-01-25T01:52:50;97957.36;;;5.93;71.53
62057;BME280;48016;50.284;18.860;2024-01-25T01:55:17;97955.05;;;5.86;71.72
62057;BME280;48016;50.284;18.860;2024-01-25T01:57:45;97952.09;;;5.81;71.76
62057;BME280;48016;50.284;18.860;2024-01-25T02:00:15;97952.48;;;5.78;71.55
62057;BME280;48016;50.284;18.860;2024-01-25T02:02:43;97952.80;;;5.75;71.41
62057;BME280;48016;50.284;18.860;2024-01-25T02:05:11;97952.54;;;5.72;71.27
62057;BME280;48016;50.284;18.860;2024-01-25T02:07:38;97954.21;;;5.69;70.74
62057;BME280;48016;50.284;18.860;2024-01-25T02:10:08;97953.30;;;5.66;70.95
62057;BME280;48016;50.284;18.860;2024-01-25T02:12:35;97956.53;;;5.65;70.77
62057;BME280;48016;50.284;18.860;2024-01-25T02:15:03;97957.44;;;5.63;70.50
62057;BME280;48016;50.284;18.860;2024-01-25T02:17:30;97953.45;;;5.62;70.27
62057;BME280;48016;50.284;18.860;2024-01-25T02:19:56;97955.41;;;5.61;70.43
62057;BME280;48016;50.284;18.860;2024-01-25T02:22:23;97956.22;;;5.59;70.38
62057;BME280;48016;50.284;18.860;2024-01-25T02:24:49;97956.29;;;5.57;70.47
62057;BME280;48016;50.284;18.860;2024-01-25T02:27:16;97947.06;;;5.55;70.39
62057;BME280;48016;50.284;18.860;2024-01-25T02:29:43;97943.67;;;5.52;70.20
62057;BME280;48016;50.284;18.860;2024-01-25T02:32:09;97935.68;;;5.51;70.10
62057;BME280;48016;50.284;18.860;2024-01-25T02:34:36;97933.77;;;5.48;69.85
62057;BME280;48016;50.284;18.860;2024-01-25T02:37:03;97937.61;;;5.46;69.55
62057;BME280;48016;50.284;18.860;2024-01-25T02:39:29;97941.28;;;5.44;69.54
62057;BME280;48016;50.284;18.860;2024-01-25T02:41:56;97945.09;;;5.42;69.56
62057;BME280;48016;50.284;18.860;2024-01-25T02:44:22;97946.10;;;5.42;69.28
62057;BME280;48016;50.284;18.860;2024-01-25T02:46:49;97933.48;;;5.41;68.84
62057;BME280;48016;50.284;18.860;2024-01-25T02:49:16;97937.21;;;5.42;69.03
62057;BME280;48016;50.284;18.860;2024-01-25T02:51:42;97940.45;;;5.43;68.95
62057;BME280;48016;50.284;18.860;2024-01-25T02:54:09;97942.86;;;5.46;69.17
62057;BME280;48016;50.284;18.860;2024-01-25T02:56:35;97941.55;;;5.47;69.14
62057;BME280;48016;50.284;18.860;2024-01-25T02:59:02;97938.05;;;5.48;68.96
62057;BME280;48016;50.284;18.860;2024-01-25T03:01:40;97941.95;;;5.49;68.84
62057;BME280;48016;50.284;18.860;2024-01-25T03:04:07;97947.87;;;5.51;68.49
62057;BME280;48016;50.284;18.860;2024-01-25T03:06:34;97943.27;;;5.51;67.95
62057;BME280;48016;50.284;18.860;2024-01-25T03:09:01;97945.94;;;5.53;67.90
62057;BME280;48016;50.284;18.860;2024-01-25T03:11:27;97947.27;;;5.52;67.56
62057;BME280;48016;50.284;18.860;2024-01-25T03:13:54;97955.84;;;5.52;67.72
62057;BME280;48016;50.284;18.860;2024-01-25T03:16:20;97958.83;;;5.51;67.39
62057;BME280;48016;50.284;18.860;2024-01-25T03:18:47;97960.41;;;5.50;67.51
62057;BME280;48016;50.284;18.860;2024-01-25T03:21:13;97945.48;;;5.50;67.24
62057;BME280;48016;50.284;18.860;2024-01-25T03:23:40;97952.76;;;5.49;66.97
62057;BME280;48016;50.284;18.860;2024-01-25T03:26:07;97952.60;;;5.49;66.86
62057;BME280;48016;50.284;18.860;2024-01-25T03:28:36;97957.67;;;5.48;66.91
62057;BME280;48016;50.284;18.860;2024-01-25T03:31:04;97965.39;;;5.48;67.01
62057;BME280;48016;50.284;18.860;2024-01-25T03:33:31;97960.37;;;5.47;67.05
62057;BME280;48016;50.284;18.860;2024-01-25T03:36:03;97958.32;;;5.46;66.80
62057;BME280;48016;50.284;18.860;2024-01-25T03:38:30;97953.27;;;5.46;66.85
62057;BME280;48016;50.284;18.860;2024-01-25T03:40:56;97956.27;;;5.46;66.80
62057;BME280;48016;50.284;18.860;2024-01-25T03:43:25;97949.52;;;5.45;66.59
62057;BME280;48016;50.284;18.860;2024-01-25T03:45:52;97953.30;;;5.45;66.42
62057;BME280;48016;50.284;18.860;2024-01-25T03:48:28;97955.71;;;5.44;66.57
62057;BME280;48016;50.284;18.860;2024-01-25T03:51:01;97958.41;;;5.43;66.70
62057;BME280;48016;50.284;18.860;2024-01-25T03:53:28;97957.89;;;5.41;66.58
62057;BME280;48016;50.284;18.860;2024-01-25T03:55:54;97957.83;;;5.41;66.68
62057;BME280;48016;50.284;18.860;2024-01-25T03:58:21;97957.30;;;5.41;66.61
62057;BME280;48016;50.284;18.860;2024-01-25T04:00:48;97955.65;;;5.41;66.60
62057;BME280;48016;50.284;18.860;2024-01-25T04:03:14;97963.26;;;5.41;66.61
62057;BME280;48016;50.284;18.860;2024-01-25T04:05:43;97962.69;;;5.43;66.75
62057;BME280;48016;50.284;18.860;2024-01-25T04:08:10;97965.95;;;5.44;66.61
62057;BME280;48016;50.284;18.860;2024-01-25T04:10:36;97971.19;;;5.43;66.70
62057;BME280;48016;50.284;18.860;2024-01-25T04:13:03;97970.48;;;5.43;66.92
62057;BME280;48016;50.284;18.860;2024-01-25T04:15:33;97965.35;;;5.42;67.12
62057;BME280;48016;50.284;18.860;2024-01-25T04:18:00;97963.42;;;5.42;67.15
62057;BME280;48016;50.284;18.860;2024-01-25T04:20:26;97967.45;;;5.42;67.04
62057;BME280;48016;50.284;18.860;2024-01-25T04:22:53;97972.33;;;5.42;67.29
62057;BME280;48016;50.284;18.860;2024-01-25T04:25:20;97974.48;;;5.42;67.29
62057;BME280;48016;50.284;18.860;2024-01-25T04:27:46;97964.00;;;5.41;67.17
62057;BME280;48016;50.284;18.860;2024-01-25T04:30:13;97976.52;;;5.40;67.44
62057;BME280;48016;50.284;18.860;2024-01-25T04:32:40;97960.64;;;5.40;67.39
62057;BME280;48016;50.284;18.860;2024-01-25T04:35:08;97964.91;;;5.39;67.47
62057;BME280;48016;50.284;18.860;2024-01-25T04:40:46;97952.48;;;5.36;67.68
62057;BME280;48016;50.284;18.860;2024-01-25T04:43:13;97959.47;;;5.36;67.83
62057;BME280;48016;50.284;18.860;2024-01-25T04:45:40;97957.90;;;5.36;67.82
62057;BME280;48016;50.284;18.860;2024-01-25T04:48:07;97952.92;;;5.35;67.93
62057;BME280;48016;50.284;18.860;2024-01-25T04:50:34;97956.79;;;5.36;67.80
62057;BME280;48016;50.284;18.860;2024-01-25T04:53:02;97953.10;;;5.37;67.96
62057;BME280;48016;50.284;18.860;2024-01-25T04:55:28;97954.28;;;5.37;68.00
62057;BME280;48016;50.284;18.860;2024-01-25T04:57:56;97961.09;;;5.38;67.91
62057;BME280;48016;50.284;18.860;2024-01-25T05:00:23;97950.95;;;5.38;67.88
62057;BME280;48016;50.284;18.860;2024-01-25T05:02:50;97953.46;;;5.36;67.95
62057;BME280;48016;50.284;18.860;2024-01-25T05:05:17;97941.66;;;5.36;67.82
62057;BME280;48016;50.284;18.860;2024-01-25T05:07:43;97937.80;;;5.34;67.80
62057;BME280;48016;50.284;18.860;2024-01-25T05:10:10;97938.48;;;5.33;67.75
62057;BME280;48016;50.284;18.860;2024-01-25T05:12:36;97939.95;;;5.31;67.63
62057;BME280;48016;50.284;18.860;2024-01-25T05:15:03;97944.36;;;5.32;67.63
62057;BME280;48016;50.284;18.860;2024-01-25T05:17:30;97938.02;;;5.31;67.56
62057;BME280;48016;50.284;18.860;2024-01-25T05:19:57;97945.91;;;5.30;67.67
62057;BME280;48016;50.284;18.860;2024-01-25T05:22:24;97938.49;;;5.29;67.52
62057;BME280;48016;50.284;18.860;2024-01-25T05:24:50;97941.79;;;5.30;67.49
62057;BME280;48016;50.284;18.860;2024-01-25T05:27:17;97950.48;;;5.30;67.61
62057;BME280;48016;50.284;18.860;2024-01-25T05:29:44;97945.66;;;5.30;67.67
62057;BME280;48016;50.284;18.860;2024-01-25T05:32:11;97951.45;;;5.31;67.63
62057;BME280;48016;50.284;18.860;2024-01-25T05:34:37;97952.95;;;5.31;67.70
62057;BME280;48016;50.284;18.860;2024-01-25T05:37:04;97956.49;;;5.31;67.84
62057;BME280;48016;50.284;18.860;2024-01-25T05:39:30;97957.28;;;5.30;67.84
62057;BME280;48016;50.284;18.860;2024-01-25T05:41:58;97963.39;;;5.30;67.98
62057;BME280;48016;50.284;18.860;2024-01-25T05:44:25;97962.95;;;5.30;68.18
62057;BME280;48016;50.284;18.860;2024-01-25T05:46:51;97961.27;;;5.29;68.56
62057;BME280;48016;50.284;18.860;2024-01-25T05:49:18;97961.89;;;5.28;68.71
62057;BME280;48016;50.284;18.860;2024-01-25T05:51:45;97955.27;;;5.27;68.88
62057;BME280;48016;50.284;18.860;2024-01-25T05:54:11;97953.05;;;5.26;69.03
62057;BME280;48016;50.284;18.860;2024-01-25T05:56:38;97946.52;;;5.27;69.20
62057;BME280;48016;50.284;18.860;2024-01-25T05:59:04;97941.91;;;5.27;69.34
62057;BME280;48016;50.284;18.860;2024-01-25T06:01:31;97940.27;;;5.27;69.34
62057;BME280;48016;50.284;18.860;2024-01-25T06:03:58;97941.48;;;5.26;69.51
62057;BME280;48016;50.284;18.860;2024-01-25T06:06:25;97939.14;;;5.25;69.44
62057;BME280;48016;50.284;18.860;2024-01-25T06:08:51;97942.16;;;5.24;69.48
62057;BME280;48016;50.284;18.860;2024-01-25T06:11:18;97945.11;;;5.22;69.45
62057;BME280;48016;50.284;18.860;2024-01-25T06:13:44;97939.64;;;5.22;69.54
62057;BME280;48016;50.284;18.860;2024-01-25T06:16:12;97941.98;;;5.20;69.52
62057;BME280;48016;50.284;18.860;2024-01-25T06:18:38;97945.40;;;5.20;69.43
62057;BME280;48016;50.284;18.860;2024-01-25T06:21:05;97959.39;;;5.19;69.60
62057;BME280;48016;50.284;18.860;2024-01-25T06:23:31;97952.80;;;5.18;69.82
62057;BME280;48016;50.284;18.860;2024-01-25T06:25:58;97951.57;;;5.18;69.93
62057;BME280;48016;50.284;18.860;2024-01-25T06:28:24;97948.67;;;5.19;69.98
62057;BME280;48016;50.284;18.860;2024-01-25T06:30:52;97947.46;;;5.17;70.16
62057;BME280;48016;50.284;18.860;2024-01-25T06:33:19;97950.68;;;5.16;70.37
62057;BME280;48016;50.284;18.860;2024-01-25T06:35:45;97951.38;;;5.14;70.64
62057;BME280;48016;50.284;18.860;2024-01-25T06:38:13;97948.35;;;5.13;70.80
62057;BME280;48016;50.284;18.860;2024-01-25T06:40:39;97946.67;;;5.09;70.91
62057;BME280;48016;50.284;18.860;2024-01-25T06:43:06;97952.09;;;5.08;71.11
62057;BME280;48016;50.284;18.860;2024-01-25T06:45:33;97960.13;;;5.08;71.11
62057;BME280;48016;50.284;18.860;2024-01-25T06:47:59;97966.13;;;5.08;71.23
62057;BME280;48016;50.284;18.860;2024-01-25T06:50:26;97952.36;;;5.06;71.36
62057;BME280;48016;50.284;18.860;2024-01-25T06:52:53;97967.51;;;5.05;71.35
62057;BME280;48016;50.284;18.860;2024-01-25T06:55:21;97973.02;;;5.05;71.31
62057;BME280;48016;50.284;18.860;2024-01-25T06:57:48;97968.30;;;5.05;71.42
62057;BME280;48016;50.284;18.860;2024-01-25T07:00:15;97969.58;;;5.04;71.41
62057;BME280;48016;50.284;18.860;2024-01-25T07:02:42;97974.09;;;5.03;71.65
62057;BME280;48016;50.284;18.860;2024-01-25T07:05:09;97980.81;;;5.02;71.66
62057;BME280;48016;50.284;18.860;2024-01-25T07:07:35;97987.18;;;5.01;71.88
62057;BME280;48016;50.284;18.860;2024-01-25T07:10:06;97985.16;;;5.00;72.05
62057;BME280;48016;50.284;18.860;2024-01-25T07:12:32;97997.52;;;4.98;72.34
62057;BME280;48016;50.284;18.860;2024-01-25T07:14:59;97987.09;;;4.98;72.56
62057;BME280;48016;50.284;18.860;2024-01-25T07:17:26;97995.69;;;4.99;72.39
62057;BME280;48016;50.284;18.860;2024-01-25T07:19:52;97999.06;;;5.01;72.40
62057;BME280;48016;50.284;18.860;2024-01-25T07:22:19;98004.18;;;5.02;72.48
62057;BME280;48016;50.284;18.860;2024-01-25T07:24:48;98001.79;;;5.05;72.49
62057;BME280;48016;50.284;18.860;2024-01-25T07:27:15;98008.30;;;5.08;72.36
62057;BME280;48016;50.284;18.860;2024-01-25T07:29:45;98015.39;;;5.10;72.11
62057;BME280;48016;50.284;18.860;2024-01-25T07:32:12;98006.11;;;5.12;71.89
62057;BME280;48016;50.284;18.860;2024-01-25T07:34:39;98006.00;;;5.14;71.78
62057;BME280;48016;50.284;18.860;2024-01-25T07:37:06;98018.33;;;5.14;71.76
62057;BME280;48016;50.284;18.860;2024-01-25T07:39:32;98012.48;;;5.14;71.66
62057;BME280;48016;50.284;18.860;2024-01-25T07:41:59;98010.71;;;5.14;71.55
62057;BME280;48016;50.284;18.860;2024-01-25T07:44:26;98018.43;;;5.13;71.65
62057;BME280;48016;50.284;18.860;2024-01-25T07:46:53;98016.52;;;5.14;71.79
62057;BME280;48016;50.284;18.860;2024-01-25T07:49:20;98020.79;;;5.15;71.77
62057;BME280;48016;50.284;18.860;2024-01-25T07:51:47;98020.70;;;5.16;71.76
62057;BME280;48016;50.284;18.860;2024-01-25T07:54:14;98020.97;;;5.18;71.68
62057;BME280;48016;50.284;18.860;2024-01-25T07:56:41;98019.22;;;5.19;71.67
62057;BME280;48016;50.284;18.860;2024-01-25T07:59:07;98018.11;;;5.20;71.67
62057;BME280;48016;50.284;18.860;2024-01-25T08:01:35;98020.95;;;5.22;71.34
62057;BME280;48016;50.284;18.860;2024-01-25T08:04:01;98019.51;;;5.22;71.35
62057;BME280;48016;50.284;18.860;2024-01-25T08:06:29;98019.66;;;5.19;71.27
62057;BME280;48016;50.284;18.860;2024-01-25T08:08:56;98033.34;;;5.18;71.34
62057;BME280;48016;50.284;18.860;2024-01-25T08:11:24;98044.38;;;5.16;71.35
62057;BME280;48016;50.284;18.860;2024-01-25T08:13:50;98049.80;;;5.14;71.60
62057;BME280;48016;50.284;18.860;2024-01-25T08:16:17;98050.50;;;5.12;71.77
62057;BME280;48016;50.284;18.860;2024-01-25T08:18:48;98052.59;;;5.11;71.93
62057;BME280;48016;50.284;18.860;2024-01-25T08:21:15;98058.63;;;5.10;71.80
62057;BME280;48016;50.284;18.860;2024-01-25T08:23:41;98055.88;;;5.09;71.90
62057;BME280;48016;50.284;18.860;2024-01-25T08:26:08;98050.38;;;5.10;72.01
62057;BME280;48016;50.284;18.860;2024-01-25T08:28:42;98049.23;;;5.12;71.71
62057;BME280;48016;50.284;18.860;2024-01-25T08:31:12;98055.15;;;5.14;71.66
62057;BME280;48016;50.284;18.860;2024-01-25T08:33:39;98054.46;;;5.16;71.37
62057;BME280;48016;50.284;18.860;2024-01-25T08:36:17;98051.60;;;5.17;71.22
62057;BME280;48016;50.284;18.860;2024-01-25T08:38:43;98046.77;;;5.18;71.01
62057;BME280;48016;50.284;18.860;2024-01-25T08:41:10;98045.43;;;5.19;70.86
62057;BME280;48016;50.284;18.860;2024-01-25T08:43:38;98052.67;;;5.19;70.77
62057;BME280;48016;50.284;18.860;2024-01-25T08:46:06;98046.58;;;5.20;70.78
62057;BME280;48016;50.284;18.860;2024-01-25T08:48:33;98044.74;;;5.21;70.64
62057;BME280;48016;50.284;18.860;2024-01-25T08:51:00;98047.63;;;5.23;70.51
62057;BME280;48016;50.284;18.860;2024-01-25T08:53:27;98048.98;;;5.22;70.49
62057;BME280;48016;50.284;18.860;2024-01-25T08:55:54;98058.81;;;5.22;70.58
62057;BME280;48016;50.284;18.860;2024-01-25T08:58:22;98061.55;;;5.24;70.75
62057;BME280;48016;50.284;18.860;2024-01-25T09:00:49;98057.63;;;5.26;70.66
62057;BME280;48016;50.284;18.860;2024-01-25T09:03:16;98054.67;;;5.27;70.39
62057;BME280;48016;50.284;18.860;2024-01-25T09:05:43;98055.44;;;5.30;70.36
62057;BME280;48016;50.284;18.860;2024-01-25T09:08:12;98056.03;;;5.32;70.23
62057;BME280;48016;50.284;18.860;2024-01-25T09:10:40;98055.38;;;5.34;70.02
62057;BME280;48016;50.284;18.860;2024-01-25T09:13:08;98066.84;;;5.35;69.68
62057;BME280;48016;50.284;18.860;2024-01-25T09:15:34;98063.70;;;5.37;69.58
62057;BME280;48016;50.284;18.860;2024-01-25T09:18:01;98076.63;;;5.36;69.44
62057;BME280;48016;50.284;18.860;2024-01-25T09:20:28;98074.85;;;5.37;69.46
62057;BME280;48016;50.284;18.860;2024-01-25T09:22:55;98073.89;;;5.38;69.41
62057;BME280;48016;50.284;18.860;2024-01-25T09:25:22;98073.48;;;5.37;69.38
62057;BME280;48016;50.284;18.860;2024-01-25T09:27:51;98072.31;;;5.36;69.48
62057;BME280;48016;50.284;18.860;2024-01-25T09:30:18;98065.70;;;5.33;69.47
62057;BME280;48016;50.284;18.860;2024-01-25T09:32:45;98080.65;;;5.31;69.47
62057;BME280;48016;50.284;18.860;2024-01-25T09:35:12;98072.53;;;5.32;69.63
62057;BME280;48016;50.284;18.860;2024-01-25T09:37:39;98073.44;;;5.31;69.75
62057;BME280;48016;50.284;18.860;2024-01-25T09:40:07;98075.83;;;5.31;69.83
62057;BME280;48016;50.284;18.860;2024-01-25T09:42:34;98073.11;;;5.31;69.87
62057;BME280;48016;50.284;18.860;2024-01-25T09:45:08;98077.86;;;5.36;69.81
62057;BME280;48016;50.284;18.860;2024-01-25T09:47:37;98075.10;;;5.41;69.71
62057;BME280;48016;50.284;18.860;2024-01-25T09:50:05;98077.95;;;5.44;69.37
62057;BME280;48016;50.284;18.860;2024-01-25T09:52:34;98077.98;;;5.46;69.18
62057;BME280;48016;50.284;18.860;2024-01-25T09:55:06;98075.10;;;5.46;69.24
62057;BME280;48016;50.284;18.860;2024-01-25T09:57:35;98084.30;;;5.49;69.31
62057;BME280;48016;50.284;18.860;2024-01-25T10:00:05;98080.02;;;5.55;69.08
62057;BME280;48016;50.284;18.860;2024-01-25T10:02:38;98075.52;;;5.63;69.09
62057;BME280;48016;50.284;18.860;2024-01-25T10:05:06;98084.08;;;5.71;68.86
62057;BME280;48016;50.284;18.860;2024-01-25T10:07:45;98086.11;;;5.73;69.30
62057;BME280;48016;50.284;18.860;2024-01-25T10:10:13;98079.94;;;5.71;69.49
62057;BME280;48016;50.284;18.860;2024-01-25T10:12:41;98081.24;;;5.70;69.61
62057;BME280;48016;50.284;18.860;2024-01-25T10:15:09;98090.65;;;5.68;69.82
62057;BME280;48016;50.284;18.860;2024-01-25T10:17:38;98097.98;;;5.68;69.81
62057;BME280;48016;50.284;18.860;2024-01-25T10:20:05;98102.88;;;5.66;69.89
62057;BME280;48016;50.284;18.860;2024-01-25T10:22:38;98102.54;;;5.69;69.83
62057;BME280;48016;50.284;18.860;2024-01-25T10:25:12;98096.34;;;5.72;69.64
62057;BME280;48016;50.284;18.860;2024-01-25T10:27:40;98096.06;;;5.76;69.33
62057;BME280;48016;50.284;18.860;2024-01-25T10:30:07;98098.84;;;5.78;68.86
62057;BME280;48016;50.284;18.860;2024-01-25T10:32:36;98103.09;;;5.74;68.80
62057;BME280;48016;50.284;18.860;2024-01-25T10:35:04;98099.20;;;5.72;68.71
62057;BME280;48016;50.284;18.860;2024-01-25T10:37:31;98102.02;;;5.68;68.61
62057;BME280;48016;50.284;18.860;2024-01-25T10:39:59;98094.54;;;5.64;68.54
62057;BME280;48016;50.284;18.860;2024-01-25T10:42:27;98104.92;;;5.62;68.66
62057;BME280;48016;50.284;18.860;2024-01-25T10:44:54;98103.27;;;5.62;68.68
62057;BME280;48016;50.284;18.860;2024-01-25T10:47:20;98107.05;;;5.62;68.36
62057;BME280;48016;50.284;18.860;2024-01-25T10:49:48;98106.48;;;5.58;68.37
62057;BME280;48016;50.284;18.860;2024-01-25T10:52:17;98107.09;;;5.57;68.50
62057;BME280;48016;50.284;18.860;2024-01-25T10:54:44;98115.90;;;5.58;68.49
62057;BME280;48016;50.284;18.860;2024-01-25T10:57:11;98105.75;;;5.59;68.63
62057;BME280;48016;50.284;18.860;2024-01-25T10:59:38;98109.14;;;5.59;68.85
62057;BME280;48016;50.284;18.860;2024-01-25T11:02:05;98108.23;;;5.61;69.05
62057;BME280;48016;50.284;18.860;2024-01-25T11:04:33;98109.10;;;5.67;69.01
62057;BME280;48016;50.284;18.860;2024-01-25T11:07:07;98101.75;;;5.67;69.00
62057;BME280;48016;50.284;18.860;2024-01-25T11:09:36;98101.61;;;5.69;68.89
62057;BME280;48016;50.284;18.860;2024-01-25T11:12:12;98096.62;;;5.71;68.83
62057;BME280;48016;50.284;18.860;2024-01-25T11:14:40;98093.16;;;5.67;68.58
62057;BME280;48016;50.284;18.860;2024-01-25T11:17:21;98093.18;;;5.66;68.53
62057;BME280;48016;50.284;18.860;2024-01-25T11:19:49;98091.98;;;5.67;68.30
62057;BME280;48016;50.284;18.860;2024-01-25T11:22:18;98096.70;;;5.65;68.37
62057;BME280;48016;50.284;18.860;2024-01-25T11:24:47;98103.21;;;5.66;68.31
62057;BME280;48016;50.284;18.860;2024-01-25T11:27:17;98109.62;;;5.65;68.24
62057;BME280;48016;50.284;18.860;2024-01-25T11:29:44;98108.33;;;5.61;68.29
62057;BME280;48016;50.284;18.860;2024-01-25T11:32:12;98110.77;;;5.56;68.35
62057;BME280;48016;50.284;18.860;2024-01-25T11:34:39;98114.65;;;5.53;68.58
62057;BME280;48016;50.284;18.860;2024-01-25T11:37:05;98115.16;;;5.52;68.75
62057;BME280;48016;50.284;18.860;2024-01-25T11:39:32;98114.70;;;5.53;68.83
62057;BME280;48016;50.284;18.860;2024-01-25T11:41:59;98117.74;;;5.52;68.95
62057;BME280;48016;50.284;18.860;2024-01-25T11:44:26;98117.69;;;5.54;69.18
62057;BME280;48016;50.284;18.860;2024-01-25T11:46:56;98124.27;;;5.59;69.43
62057;BME280;48016;50.284;18.860;2024-01-25T11:49:24;98133.23;;;5.61;69.62
62057;BME280;48016;50.284;18.860;2024-01-25T11:51:52;98135.48;;;5.67;69.97
62057;BME280;48016;50.284;18.860;2024-01-25T11:54:18;98145.35;;;5.71;70.19
62057;BME280;48016;50.284;18.860;2024-01-25T11:56:46;98154.05;;;5.75;70.53
62057;BME280;48016;50.284;18.860;2024-01-25T11:59:13;98149.25;;;5.73;70.60
62057;BME280;48016;50.284;18.860;2024-01-25T12:01:40;98142.83;;;5.69;70.89
62057;BME280;48016;50.284;18.860;2024-01-25T12:04:08;98150.23;;;5.67;70.86
62057;BME280;48016;50.284;18.860;2024-01-25T12:06:35;98153.83;;;5.63;71.17
62057;BME280;48016;50.284;18.860;2024-01-25T12:09:09;98161.27;;;5.59;71.28
62057;BME280;48016;50.284;18.860;2024-01-25T12:11:38;98165.15;;;5.56;71.26
62057;BME280;48016;50.284;18.860;2024-01-25T12:14:09;98173.61;;;5.53;71.51
62057;BME280;48016;50.284;18.860;2024-01-25T12:16:36;98173.76;;;5.51;71.79
62057;BME280;48016;50.284;18.860;2024-01-25T12:19:02;98180.34;;;5.49;72.07
62057;BME280;48016;50.284;18.860;2024-01-25T12:21:32;98177.39;;;5.47;72.36
62057;BME280;48016;50.284;18.860;2024-01-25T12:24:00;98181.50;;;5.48;72.40
62057;BME280;48016;50.284;18.860;2024-01-25T12:26:27;98175.99;;;5.49;72.48
62057;BME280;48016;50.284;18.860;2024-01-25T12:28:54;98182.11;;;5.49;72.46
62057;BME280;48016;50.284;18.860;2024-01-25T12:31:21;98178.59;;;5.47;72.57
62057;BME280;48016;50.284;18.860;2024-01-25T12:33:47;98187.05;;;5.47;72.61
62057;BME280;48016;50.284;18.860;2024-01-25T12:36:14;98191.79;;;5.43;72.44
62057;BME280;48016;50.284;18.860;2024-01-25T12:38:42;98189.89;;;5.41;72.34
62057;BME280;48016;50.284;18.860;2024-01-25T12:41:09;98197.27;;;5.35;72.24
62057;BME280;48016;50.284;18.860;2024-01-25T12:43:36;98196.01;;;5.32;72.32
62057;BME280;48016;50.284;18.860;2024-01-25T12:46:03;98205.64;;;5.30;72.30
62057;BME280;48016;50.284;18.860;2024-01-25T12:48:30;98207.64;;;5.27;72.36
62057;BME280;48016;50.284;18.860;2024-01-25T12:50:57;98213.73;;;5.23;72.65
62057;BME280;48016;50.284;18.860;2024-01-25T12:53:25;98214.71;;;5.21;72.62
62057;BME280;48016;50.284;18.860;2024-01-25T12:55:52;98220.36;;;5.18;72.83
62057;BME280;48016;50.284;18.860;2024-01-25T12:58:19;98217.56;;;5.17;73.17
62057;BME280;48016;50.284;18.860;2024-01-25T13:00:46;98222.73;;;5.16;73.13
62057;BME280;48016;50.284;18.860;2024-01-25T13:03:13;98222.69;;;5.15;73.27
62057;BME280;48016;50.284;18.860;2024-01-25T13:05:40;98220.36;;;5.14;73.31
62057;BME280;48016;50.284;18.860;2024-01-25T13:08:07;98222.46;;;5.13;73.39
62057;BME280;48016;50.284;18.860;2024-01-25T13:10:34;98222.67;;;5.13;73.54
62057;BME280;48016;50.284;18.860;2024-01-25T13:13:02;98218.02;;;5.12;73.58
62057;BME280;48016;50.284;18.860;2024-01-25T13:15:29;98222.09;;;5.10;73.79
62057;BME280;48016;50.284;18.860;2024-01-25T13:17:57;98217.90;;;5.08;74.01